Time;durP1;ratioP1;P1;durP2;ratioP2;P2;SDS_P1;SDS_P2;PMS_P1;PMS_P2;Temp;Humidity;BMP_temperature;BMP_pressure;BME280_temperature;BME280_humidity;BME280_pressure;Samples;Min_cycle;Max_cycle;Signal;HPM_P1;HPM_P2
2021/10/01 00:02:08;;;;;;;18.60;3.95;;;15.20;79.00;;;;;;5007981;28;20013;-62
2021/10/01 00:04:34;;;;;;;23.73;5.15;;;15.10;79.00;;;;;;5023742;28;20153;-61
2021/10/01 00:06:59;;;;;;;19.25;3.78;;;15.10;79.00;;;;;;5020345;28;20076;-62
2021/10/01 00:09:25;;;;;;;16.75;3.47;;;15.10;79.00;;;;;;5027610;28;20033;-62
2021/10/01 00:11:54;;;;;;;13.02;3.70;;;15.10;79.00;;;;;;5019336;28;20041;-61
2021/10/01 00:14:24;;;;;;;12.77;3.40;;;15.00;79.00;;;;;;5026828;28;20613;-61
2021/10/01 00:16:50;;;;;;;14.55;3.33;;;15.00;79.00;;;;;;5003580;28;20033;-61
2021/10/01 00:19:15;;;;;;;15.68;3.70;;;15.00;79.20;;;;;;5024981;28;20477;-62
2021/10/01 00:21:41;;;;;;;12.93;3.42;;;15.00;79.20;;;;;;5026665;28;20014;-61
2021/10/01 00:24:09;;;;;;;19.35;4.85;;;15.00;79.30;;;;;;5018782;28;20588;-61
2021/10/01 00:26:39;;;;;;;12.30;3.80;;;15.00;79.30;;;;;;5020425;28;20045;-61
2021/10/01 00:29:05;;;;;;;18.25;4.25;;;14.90;79.40;;;;;;5023534;28;20039;-61
2021/10/01 00:31:30;;;;;;;13.27;3.90;;;14.90;79.30;;;;;;5027850;28;20047;-61
2021/10/01 00:33:56;;;;;;;12.50;3.90;;;14.90;79.40;;;;;;5010426;28;20025;-61
2021/10/01 00:36:21;;;;;;;15.02;3.88;;;14.90;79.50;;;;;;5025394;28;20022;-61
2021/10/01 00:38:47;;;;;;;16.38;3.97;;;14.90;79.50;;;;;;5023585;28;20076;-61
2021/10/01 00:41:12;;;;;;;10.15;3.47;;;14.80;79.50;;;;;;5004459;28;20492;-62
2021/10/01 00:43:38;;;;;;;11.48;3.97;;;14.80;79.50;;;;;;5006932;28;20032;-62
2021/10/01 00:46:03;;;;;;;12.30;3.17;;;14.80;79.50;;;;;;5009498;28;20025;-62
2021/10/01 00:48:29;;;;;;;12.10;3.47;;;14.80;79.60;;;;;;5026853;28;20414;-62
2021/10/01 00:50:54;;;;;;;12.30;3.65;;;14.70;79.50;;;;;;5021470;28;20123;-61
2021/10/01 00:53:20;;;;;;;13.48;3.33;;;14.80;79.60;;;;;;5003598;28;21760;-62
2021/10/01 00:55:47;;;;;;;14.38;3.67;;;14.80;79.60;;;;;;5026380;28;20127;-62
2021/10/01 00:58:12;;;;;;;5.28;2.65;;;14.80;79.70;;;;;;5023613;28;20025;-62
2021/10/01 01:00:50;;;;;;;8.18;3.00;;;14.70;79.70;;;;;;5010516;28;20064;-62
2021/10/01 01:03:16;;;;;;;13.52;3.08;;;14.70;79.70;;;;;;5004878;28;20224;-61
2021/10/01 01:06:21;;;;;;;16.02;3.85;;;14.70;79.90;;;;;;5022935;28;20116;-62
2021/10/01 01:09:18;;;;;;;12.80;2.97;;;14.70;80.50;;;;;;5022956;28;20077;-62
2021/10/01 01:12:08;;;;;;;7.32;2.65;;;14.60;79.70;;;;;;5022169;28;20037;-61
2021/10/01 01:14:52;;;;;;;11.25;3.05;;;14.60;79.80;;;;;;5019780;28;20143;-62
2021/10/01 01:17:21;;;;;;;16.88;3.35;;;14.60;79.90;;;;;;5025026;28;20068;-62
2021/10/01 01:20:10;;;;;;;7.47;2.65;;;14.50;79.80;;;;;;5023916;28;20062;-62
2021/10/01 01:22:54;;;;;;;9.98;2.80;;;14.50;80.00;;;;;;5023333;28;20387;-62
2021/10/01 01:25:56;;;;;;;7.10;2.50;;;14.50;79.90;;;;;;5019948;28;20038;-61
2021/10/01 01:28:39;;;;;;;12.50;3.15;;;14.50;80.00;;;;;;4995695;28;20355;-62
2021/10/01 01:31:21;;;;;;;11.43;3.22;;;14.50;80.00;;;;;;5025806;28;20033;-61
2021/10/01 01:33:47;;;;;;;6.60;3.50;;;14.40;80.10;;;;;;5023160;28;20025;-62
2021/10/01 01:36:13;;;;;;;7.38;3.55;;;14.40;80.20;;;;;;5020768;28;20029;-62
2021/10/01 01:38:41;;;;;;;6.47;3.17;;;14.40;80.40;;;;;;5025369;28;20044;-61
2021/10/01 01:41:07;;;;;;;12.40;3.70;;;14.40;80.30;;;;;;5027006;28;20026;-62
2021/10/01 01:43:34;;;;;;;9.55;3.15;;;14.30;80.40;;;;;;5028680;28;20028;-62
2021/10/01 01:46:00;;;;;;;10.88;3.30;;;14.40;80.40;;;;;;5027088;28;20025;-62
2021/10/01 01:48:25;;;;;;;5.07;3.00;;;14.30;80.40;;;;;;5024973;28;20083;-62
2021/10/01 01:50:51;;;;;;;6.88;3.13;;;14.30;80.40;;;;;;5009878;28;20022;-61
2021/10/01 01:53:16;;;;;;;7.47;2.97;;;14.30;80.40;;;;;;4990379;28;20044;-62
2021/10/01 01:55:42;;;;;;;5.82;3.05;;;14.30;80.40;;;;;;5008060;28;20159;-61
2021/10/01 01:58:08;;;;;;;11.90;3.70;;;14.30;80.40;;;;;;5024416;28;20029;-61
2021/10/01 02:00:33;;;;;;;6.15;2.65;;;14.30;80.40;;;;;;5029728;28;20037;-61
2021/10/01 02:02:59;;;;;;;9.48;2.72;;;14.30;80.50;;;;;;5029553;28;20021;-62
2021/10/01 02:05:25;;;;;;;5.35;2.95;;;14.20;80.50;;;;;;5020747;28;20030;-61
2021/10/01 02:07:50;;;;;;;9.15;3.20;;;14.20;80.50;;;;;;5006368;28;20476;-62
2021/10/01 02:10:17;;;;;;;6.35;2.97;;;14.20;80.50;;;;;;5001394;28;20433;-62
2021/10/01 02:12:44;;;;;;;6.95;3.08;;;14.20;80.60;;;;;;5019800;28;20056;-61
2021/10/01 02:15:10;;;;;;;8.50;3.00;;;14.10;80.60;;;;;;5032557;28;20024;-62
2021/10/01 02:17:36;;;;;;;6.90;3.00;;;14.20;80.70;;;;;;5020168;28;20116;-61
2021/10/01 02:20:02;;;;;;;6.25;2.80;;;14.10;80.60;;;;;;5024900;28;20143;-62
2021/10/01 02:22:28;;;;;;;5.20;2.72;;;14.10;80.60;;;;;;5024695;28;20051;-62
2021/10/01 02:24:53;;;;;;;5.78;3.15;;;14.10;80.70;;;;;;5009964;28;20026;-62
2021/10/01 02:27:39;;;;;;;8.40;3.28;;;14.10;80.70;;;;;;5004900;28;20033;-62
2021/10/01 02:30:18;;;;;;;7.47;2.70;;;14.10;80.80;;;;;;5025458;28;20037;-61
2021/10/01 02:33:03;;;;;;;11.23;2.80;;;14.10;80.90;;;;;;5023058;28;20160;-61
2021/10/01 02:35:29;;;;;;;7.57;2.63;;;14.00;80.80;;;;;;5018271;28;20025;-62
2021/10/01 02:37:54;;;;;;;16.42;3.22;;;14.10;80.90;;;;;;5026240;28;20092;-62
2021/10/01 02:40:20;;;;;;;9.95;2.85;;;14.10;81.00;;;;;;5019214;28;20045;-61
2021/10/01 02:42:46;;;;;;;7.78;2.67;;;14.00;81.00;;;;;;5024377;28;20029;-61
2021/10/01 02:45:12;;;;;;;12.43;2.90;;;14.00;81.20;;;;;;5022814;28;20056;-62
2021/10/01 02:47:38;;;;;;;6.65;3.10;;;13.90;81.20;;;;;;4999942;28;20066;-62
2021/10/01 02:50:06;;;;;;;8.73;2.55;;;14.00;81.30;;;;;;5025240;28;20125;-62
2021/10/01 02:52:38;;;;;;;8.77;2.58;;;13.90;81.40;;;;;;5020246;28;20072;-62
2021/10/01 02:55:14;;;;;;;6.00;2.38;;;13.90;81.40;;;;;;5023253;28;20029;-61
2021/10/01 02:57:41;;;;;;;9.18;2.40;;;13.90;81.30;;;;;;5022941;28;20037;-62
2021/10/01 03:00:07;;;;;;;4.50;2.20;;;13.90;81.40;;;;;;5024942;28;20045;-62
2021/10/01 03:02:33;;;;;;;7.25;2.53;;;13.90;81.40;;;;;;5023208;28;20377;-61
2021/10/01 03:04:58;;;;;;;5.10;2.00;;;13.90;81.50;;;;;;5020642;28;20033;-61
2021/10/01 03:07:24;;;;;;;6.22;2.47;;;13.90;81.50;;;;;;5003728;28;20119;-61
2021/10/01 03:09:50;;;;;;;4.53;2.30;;;13.90;81.60;;;;;;5024736;28;20060;-62
2021/10/01 03:12:17;;;;;;;8.73;2.10;;;13.80;81.50;;;;;;5021708;28;20453;-62
2021/10/01 03:14:42;;;;;;;7.95;2.60;;;13.80;81.50;;;;;;5024649;28;20477;-62
2021/10/01 03:17:08;;;;;;;7.95;2.88;;;13.80;81.50;;;;;;5005610;28;20115;-61
2021/10/01 03:19:34;;;;;;;5.50;2.78;;;13.80;81.60;;;;;;5009391;28;20067;-62
2021/10/01 03:22:00;;;;;;;6.50;2.97;;;13.80;81.70;;;;;;5023313;28;20072;-62
2021/10/01 03:24:25;;;;;;;14.15;2.95;;;13.80;81.70;;;;;;5020889;28;20061;-62
2021/10/01 03:26:53;;;;;;;9.20;3.25;;;13.70;81.60;;;;;;5020776;28;20049;-61
2021/10/01 03:29:19;;;;;;;6.00;2.80;;;13.70;81.80;;;;;;4988174;28;20041;-61
2021/10/01 03:31:45;;;;;;;7.97;2.70;;;13.70;81.70;;;;;;5002738;28;20025;-62
2021/10/01 03:34:11;;;;;;;7.18;2.70;;;13.70;81.70;;;;;;5019518;28;20029;-61
2021/10/01 03:36:37;;;;;;;6.50;2.47;;;13.70;81.70;;;;;;5018441;28;20124;-62
2021/10/01 03:39:03;;;;;;;4.75;2.63;;;13.70;81.80;;;;;;5005857;28;20029;-62
2021/10/01 03:41:29;;;;;;;6.65;2.83;;;13.70;81.80;;;;;;5019886;28;20269;-62
2021/10/01 03:43:54;;;;;;;7.88;2.45;;;13.70;81.90;;;;;;5014242;28;20180;-61
2021/10/01 03:46:20;;;;;;;7.72;3.50;;;13.70;81.90;;;;;;5019896;28;20061;-62
2021/10/01 03:48:45;;;;;;;4.97;2.45;;;13.60;81.90;;;;;;5009140;28;20046;-62
2021/10/01 03:51:11;;;;;;;4.75;2.72;;;13.60;82.00;;;;;;5022187;28;20049;-62
2021/10/01 03:53:37;;;;;;;4.47;2.20;;;13.60;82.10;;;;;;5022843;28;20060;-61
2021/10/01 03:56:02;;;;;;;6.40;2.47;;;13.60;82.20;;;;;;5022078;28;20021;-62
2021/10/01 03:58:28;;;;;;;4.32;2.00;;;13.50;82.20;;;;;;4991850;28;20033;-61
2021/10/01 04:00:53;;;;;;;6.75;2.13;;;13.50;82.20;;;;;;5018091;28;20052;-62
2021/10/01 04:03:19;;;;;;;4.30;2.45;;;13.50;82.20;;;;;;5016865;28;20038;-62
2021/10/01 04:05:45;;;;;;;11.10;2.80;;;13.50;82.20;;;;;;5019569;28;20432;-61
2021/10/01 04:08:11;;;;;;;9.77;2.22;;;13.50;82.30;;;;;;5024521;28;20063;-62
2021/10/01 04:10:37;;;;;;;7.70;1.98;;;13.50;82.30;;;;;;5015864;28;20101;-62
2021/10/01 04:13:03;;;;;;;4.93;2.28;;;13.50;82.30;;;;;;5020284;28;20137;-62
2021/10/01 04:15:29;;;;;;;7.35;2.25;;;13.40;82.30;;;;;;5025163;28;20139;-62
2021/10/01 04:17:54;;;;;;;9.23;2.30;;;13.50;82.30;;;;;;5021331;28;20207;-62
2021/10/01 04:20:20;;;;;;;7.28;2.28;;;13.40;82.40;;;;;;5025866;28;20021;-62
2021/10/01 04:22:46;;;;;;;5.35;2.05;;;13.40;82.50;;;;;;5023679;28;20466;-62
2021/10/01 04:25:11;;;;;;;5.18;2.08;;;13.40;82.60;;;;;;5004889;28;20074;-62
2021/10/01 04:27:37;;;;;;;7.15;2.08;;;13.30;82.70;;;;;;5022299;28;20402;-61
2021/10/01 04:30:03;;;;;;;5.40;2.10;;;13.30;82.80;;;;;;5026203;28;20420;-61
2021/10/01 04:32:29;;;;;;;4.97;1.92;;;13.30;82.90;;;;;;5013390;28;20030;-62
2021/10/01 04:35:04;;;;;;;8.10;2.25;;;13.30;82.90;;;;;;4999627;28;20013;-61
2021/10/01 04:37:29;;;;;;;6.13;2.70;;;13.20;82.90;;;;;;5007075;28;20045;-62
2021/10/01 04:39:55;;;;;;;7.95;1.80;;;13.20;83.00;;;;;;5017442;28;20583;-61
2021/10/01 04:42:21;;;;;;;3.92;1.88;;;13.20;83.00;;;;;;5022317;28;20040;-62
2021/10/01 04:44:47;;;;;;;3.35;1.92;;;13.20;83.00;;;;;;5007242;28;20032;-61
2021/10/01 04:47:12;;;;;;;15.07;1.83;;;13.20;83.10;;;;;;5018225;28;20026;-62
2021/10/01 04:49:38;;;;;;;5.22;1.80;;;13.10;83.10;;;;;;5014918;28;20153;-62
2021/10/01 04:52:04;;;;;;;4.53;2.03;;;13.10;83.10;;;;;;5021646;28;20167;-62
2021/10/01 04:54:29;;;;;;;4.80;2.10;;;13.10;83.10;;;;;;5019962;28;20025;-62
2021/10/01 04:56:55;;;;;;;6.78;2.28;;;13.10;83.10;;;;;;5019137;28;20204;-62
2021/10/01 04:59:21;;;;;;;3.75;2.05;;;13.10;83.90;;;;;;5002306;28;20053;-62
2021/10/01 05:01:46;;;;;;;3.17;1.88;;;13.10;83.30;;;;;;5019617;28;20337;-62
2021/10/01 05:04:12;;;;;;;3.35;1.90;;;13.00;83.30;;;;;;5020668;28;20034;-62
2021/10/01 05:06:38;;;;;;;3.65;1.90;;;13.00;83.30;;;;;;5009208;28;20026;-62
2021/10/01 05:09:04;;;;;;;6.25;2.00;;;13.00;83.30;;;;;;5024589;28;20450;-62
2021/10/01 05:11:29;;;;;;;3.03;1.88;;;13.00;83.40;;;;;;5023067;28;20055;-62
2021/10/01 05:13:55;;;;;;;3.30;1.60;;;13.00;83.30;;;;;;5021431;28;20347;-62
2021/10/01 05:16:21;;;;;;;5.88;2.35;;;12.90;83.30;;;;;;5026792;28;20453;-62
2021/10/01 05:18:46;;;;;;;5.25;1.73;;;13.00;83.40;;;;;;5027563;28;20029;-61
2021/10/01 05:21:12;;;;;;;6.38;2.00;;;12.90;83.40;;;;;;5022589;28;20034;-62
2021/10/01 05:23:37;;;;;;;4.28;2.10;;;12.90;83.50;;;;;;5023985;28;20036;-62
2021/10/01 05:26:03;;;;;;;4.72;2.03;;;12.90;83.50;;;;;;5009750;28;20034;-62
2021/10/01 05:28:28;;;;;;;3.35;1.80;;;12.90;83.60;;;;;;5024866;28;20385;-61
2021/10/01 05:30:54;;;;;;;5.85;2.22;;;12.80;83.60;;;;;;5017970;28;20057;-62
2021/10/01 05:33:19;;;;;;;4.50;2.13;;;12.80;83.70;;;;;;5025743;28;20132;-61
2021/10/01 05:35:45;;;;;;;4.05;2.10;;;12.80;83.70;;;;;;5023698;28;20056;-62
2021/10/01 05:38:11;;;;;;;8.60;2.08;;;12.80;83.70;;;;;;5023577;28;20516;-61
2021/10/01 05:40:37;;;;;;;3.33;2.00;;;12.80;83.80;;;;;;5003442;28;20032;-62
2021/10/01 05:43:03;;;;;;;3.45;1.70;;;12.80;83.90;;;;;;5003331;28;20029;-62
2021/10/01 05:45:29;;;;;;;2.63;2.08;;;12.70;84.00;;;;;;5029714;28;20057;-61
2021/10/01 05:47:54;;;;;;;3.08;1.90;;;12.80;84.10;;;;;;5020610;28;20043;-61
2021/10/01 05:50:22;;;;;;;2.88;1.77;;;12.70;84.10;;;;;;5010720;28;20025;-61
2021/10/01 05:55:13;;;;;;;9.73;2.42;;;12.70;84.00;;;;;;5028107;28;20029;-61
2021/10/01 05:57:38;;;;;;;3.25;2.00;;;12.70;84.10;;;;;;5027682;28;20233;-61
2021/10/01 06:00:05;;;;;;;2.75;1.83;;;12.70;84.00;;;;;;5029057;28;20071;-62
2021/10/01 06:02:30;;;;;;;4.47;2.28;;;12.70;84.20;;;;;;5024965;28;20171;-61
2021/10/01 06:04:56;;;;;;;4.38;2.42;;;12.70;84.30;;;;;;5026150;28;20116;-61
2021/10/01 06:07:21;;;;;;;5.13;2.40;;;12.60;84.30;;;;;;5026856;28;20505;-61
2021/10/01 06:09:47;;;;;;;3.90;2.35;;;12.60;84.50;;;;;;5023343;28;20423;-61
2021/10/01 06:12:14;;;;;;;5.80;2.30;;;12.60;84.50;;;;;;5027438;28;20101;-62
2021/10/01 06:14:40;;;;;;;3.42;2.10;;;12.60;84.60;;;;;;5026299;28;20120;-61
2021/10/01 06:17:06;;;;;;;6.95;2.70;;;12.60;84.70;;;;;;5026087;28;20061;-61
2021/10/01 06:19:33;;;;;;;4.47;2.45;;;12.60;84.70;;;;;;5026898;28;20420;-61
2021/10/01 06:22:00;;;;;;;3.65;2.15;;;12.60;84.90;;;;;;5010802;28;20449;-62
2021/10/01 06:24:25;;;;;;;4.70;2.53;;;12.60;84.80;;;;;;5028323;28;20021;-62
2021/10/01 06:26:51;;;;;;;5.43;2.25;;;12.60;84.90;;;;;;5023956;28;20047;-61
2021/10/01 06:29:16;;;;;;;6.57;2.53;;;12.60;84.90;;;;;;5026283;28;20121;-61
2021/10/01 06:31:42;;;;;;;5.32;2.25;;;12.50;84.90;;;;;;5027131;28;20037;-62
2021/10/01 06:34:08;;;;;;;7.45;2.75;;;12.50;85.00;;;;;;5025971;28;20021;-61
2021/10/01 06:36:34;;;;;;;7.93;2.78;;;12.50;85.00;;;;;;5024838;28;20401;-61
2021/10/01 06:38:59;;;;;;;5.93;2.72;;;12.50;85.10;;;;;;5008850;28;20025;-61
2021/10/01 06:41:25;;;;;;;5.82;2.38;;;12.50;85.20;;;;;;5024399;28;20060;-62
2021/10/01 06:43:57;;;;;;;5.32;2.40;;;12.50;85.30;;;;;;5022998;28;20033;-61
2021/10/01 06:46:47;;;;;;;7.53;2.58;;;12.50;85.30;;;;;;5024700;28;20048;-61
2021/10/01 06:49:33;;;;;;;4.45;2.25;;;12.50;85.40;;;;;;5026828;28;20049;-61
2021/10/01 06:52:29;;;;;;;6.43;2.72;;;12.50;85.50;;;;;;5020518;28;20025;-62
2021/10/01 07:21:06;;;;;;;7.63;3.38;;;12.50;85.50;;;;;;4996549;28;20519;-61
2021/10/01 07:38:54;;;;;;;11.32;3.70;;;12.20;89.90;;;;;;5023955;28;20044;-61
2021/10/01 07:39:17;;;;;;;17.30;4.13;;;12.20;90.00;;;;;;5027404;28;20043;-60
2021/10/01 07:45:25;;;;;;;20.83;4.80;;;12.10;90.10;;;;;;5025143;28;20067;-61
2021/10/01 08:20:17;;;;;;;23.55;7.03;;;12.30;91.00;;;;;;5023154;28;20134;-61
2021/10/01 08:22:43;;;;;;;23.25;5.72;;;12.30;91.10;;;;;;5001694;28;20125;-60
2021/10/01 08:25:08;;;;;;;29.98;6.00;;;12.30;91.20;;;;;;5010743;28;20228;-61
2021/10/01 08:27:35;;;;;;;39.15;7.40;;;12.40;91.10;;;;;;5015283;28;20509;-61
2021/10/01 08:30:05;;;;;;;28.60;6.47;;;12.30;91.10;;;;;;5023557;28;20536;-61
2021/10/01 08:32:31;;;;;;;25.25;7.05;;;12.40;91.20;;;;;;5019810;28;20030;-61
2021/10/01 08:34:56;;;;;;;24.38;6.40;;;12.40;91.10;;;;;;5024186;28;20029;-61
2021/10/01 08:37:22;;;;;;;26.23;6.70;;;12.50;91.00;;;;;;5023551;28;20037;-61
2021/10/01 08:39:47;;;;;;;30.77;6.82;;;12.50;91.30;;;;;;5028909;28;20109;-61
2021/10/01 08:42:13;;;;;;;50.33;8.40;;;12.50;91.20;;;;;;5027065;28;20026;-61
2021/10/01 08:44:39;;;;;;;45.70;7.50;;;12.60;91.40;;;;;;5027743;28;20064;-61
2021/10/01 08:47:05;;;;;;;36.83;7.90;;;12.60;91.40;;;;;;5029377;28;20017;-61
2021/10/01 08:49:31;;;;;;;56.38;8.77;;;12.60;91.30;;;;;;4993765;28;20569;-61
2021/10/01 08:51:57;;;;;;;42.03;9.48;;;12.70;91.30;;;;;;5022990;28;20128;-61
2021/10/01 08:54:23;;;;;;;44.60;8.93;;;12.70;91.50;;;;;;5011771;28;20037;-61
2021/10/01 08:56:49;;;;;;;47.08;8.50;;;12.70;91.40;;;;;;5027182;28;20034;-61
2021/10/01 08:59:14;;;;;;;41.30;7.70;;;12.80;91.40;;;;;;5025260;28;20047;-61
2021/10/01 09:01:40;;;;;;;42.28;9.60;;;12.80;91.20;;;;;;5026019;28;20099;-61
2021/10/01 09:04:07;;;;;;;60.55;9.35;;;12.90;91.60;;;;;;5029560;28;20080;-62
2021/10/01 09:06:32;;;;;;;73.55;11.35;;;12.90;91.50;;;;;;5024601;28;20033;-61
2021/10/01 09:09:05;;;;;;;66.50;10.35;;;12.90;91.70;;;;;;5011916;28;20491;-61
2021/10/01 09:11:35;;;;;;;44.42;9.60;;;12.90;91.60;;;;;;5024253;28;20434;-61
2021/10/01 09:14:10;;;;;;;51.75;10.18;;;13.00;91.70;;;;;;5023725;28;20120;-61
2021/10/01 09:16:36;;;;;;;76.93;11.52;;;13.00;91.50;;;;;;5021038;28;20117;-61
2021/10/01 09:19:03;;;;;;;56.20;8.60;;;13.00;91.40;;;;;;5026166;28;20083;-61
2021/10/01 09:21:30;;;;;;;65.32;9.07;;;13.10;91.40;;;;;;5023963;28;20025;-61
2021/10/01 09:24:00;;;;;;;49.00;9.45;;;13.10;91.60;;;;;;5026223;28;20038;-60
2021/10/01 09:26:27;;;;;;;66.15;10.30;;;13.20;91.70;;;;;;5025490;28;20045;-61
2021/10/01 09:28:59;;;;;;;51.63;9.73;;;13.10;91.70;;;;;;5021245;28;20092;-61
2021/10/01 09:31:34;;;;;;;46.45;8.38;;;13.20;91.70;;;;;;5021498;28;20108;-61
2021/10/01 09:34:00;;;;;;;62.30;10.55;;;13.30;91.70;;;;;;5023149;28;20044;-61
2021/10/01 09:36:26;;;;;;;41.70;8.85;;;13.20;91.60;;;;;;5004348;28;20497;-61
2021/10/01 09:38:53;;;;;;;55.70;8.68;;;13.20;91.50;;;;;;5015769;28;20499;-61
2021/10/01 09:41:30;;;;;;;48.55;9.50;;;13.30;91.60;;;;;;5020540;28;20227;-62
2021/10/01 09:44:06;;;;;;;53.13;9.38;;;13.40;91.70;;;;;;5018348;28;20032;-61
2021/10/01 09:46:50;;;;;;;58.33;9.25;;;13.30;91.70;;;;;;5025435;28;20056;-61
2021/10/01 09:49:17;;;;;;;61.53;10.18;;;13.40;91.70;;;;;;5017940;28;20240;-61
2021/10/01 09:51:54;;;;;;;56.78;9.88;;;13.40;91.70;;;;;;5020894;28;20034;-61
2021/10/01 09:54:21;;;;;;;67.72;10.32;;;13.50;91.90;;;;;;5020938;28;20400;-61
2021/10/01 09:56:47;;;;;;;63.65;9.80;;;13.50;91.80;;;;;;5024944;28;20045;-61
2021/10/01 09:59:13;;;;;;;73.45;11.32;;;13.60;91.90;;;;;;5007443;28;20041;-61
2021/10/01 10:01:58;;;;;;;75.88;12.23;;;13.60;91.90;;;;;;5022260;28;20038;-61
2021/10/01 10:04:24;;;;;;;67.85;11.15;;;13.60;92.00;;;;;;5017918;28;20079;-61
2021/10/01 10:06:50;;;;;;;76.35;10.00;;;13.70;91.90;;;;;;5020537;28;20018;-61
2021/10/01 10:09:15;;;;;;;45.10;9.73;;;13.70;91.90;;;;;;5022069;28;20063;-62
2021/10/01 10:11:41;;;;;;;84.75;10.38;;;13.80;91.90;;;;;;5008669;28;20040;-61
2021/10/01 10:14:09;;;;;;;76.00;10.85;;;13.90;91.80;;;;;;5025246;28;20022;-61
2021/10/01 10:16:34;;;;;;;68.13;9.85;;;13.90;91.70;;;;;;5021781;28;20112;-61
2021/10/01 10:19:04;;;;;;;73.70;11.57;;;13.90;91.80;;;;;;5017527;28;20124;-60
2021/10/01 10:21:30;;;;;;;81.13;10.85;;;14.00;91.70;;;;;;5013289;28;20036;-61
2021/10/01 10:23:56;;;;;;;56.17;9.82;;;14.00;91.60;;;;;;5020322;28;20029;-61
2021/10/01 10:26:22;;;;;;;54.22;9.75;;;14.10;91.60;;;;;;5016610;28;20037;-61
2021/10/01 10:28:47;;;;;;;70.20;9.45;;;14.10;91.50;;;;;;5015763;28;20061;-61
2021/10/01 10:31:13;;;;;;;178.63;17.30;;;14.20;91.40;;;;;;4994298;28;20140;-61
2021/10/01 10:33:49;;;;;;;80.05;11.80;;;14.20;91.40;;;;;;5017323;28;20108;-61
2021/10/01 10:36:34;;;;;;;77.15;10.20;;;14.20;91.40;;;;;;5021540;28;20026;-61
2021/10/01 10:39:32;;;;;;;93.85;12.98;;;14.30;91.40;;;;;;5011257;28;20026;-61
2021/10/01 10:42:00;;;;;;;64.07;10.38;;;14.30;91.40;;;;;;5019185;28;20038;-61
2021/10/01 10:44:44;;;;;;;62.47;9.68;;;14.40;91.30;;;;;;5011070;28;20085;-61
2021/10/01 10:47:10;;;;;;;48.30;8.27;;;14.40;91.20;;;;;;5015773;28;20159;-60
2021/10/01 10:49:36;;;;;;;75.72;9.25;;;14.50;91.50;;;;;;5020713;28;20108;-61
2021/10/01 10:52:12;;;;;;;58.63;9.32;;;14.50;91.20;;;;;;5017279;28;20333;-61
2021/10/01 10:54:39;;;;;;;52.97;8.55;;;14.60;91.10;;;;;;5003731;28;20041;-61
2021/10/01 10:57:17;;;;;;;50.17;8.50;;;14.70;91.10;;;;;;5002580;28;20406;-61
2021/10/01 10:59:50;;;;;;;80.75;11.27;;;14.70;90.90;;;;;;5025460;28;20037;-61
2021/10/01 11:02:25;;;;;;;62.20;8.60;;;14.80;91.00;;;;;;5020119;28;20036;-61
2021/10/01 11:04:51;;;;;;;;;;;14.80;91.00;;;;;;5024940;28;20025;-65
2021/10/01 11:07:56;;;;;;;58.25;8.45;;;14.90;90.70;;;;;;5017931;28;19943;-61
2021/10/01 11:10:44;;;;;;;50.33;7.78;;;14.90;90.60;;;;;;4992421;28;20487;-61
2021/10/01 11:13:21;;;;;;;48.85;7.57;;;15.00;90.60;;;;;;5020036;28;20038;-61
2021/10/01 11:16:09;;;;;;;33.90;7.90;;;15.00;90.50;;;;;;5020704;28;20029;-61
2021/10/01 11:18:35;;;;;;;75.30;8.30;;;15.10;90.50;;;;;;5019940;28;20026;-61
2021/10/01 11:21:01;;;;;;;43.28;7.32;;;15.10;90.40;;;;;;5019492;28;20034;-61
2021/10/01 11:23:27;;;;;;;53.70;8.02;;;15.20;90.20;;;;;;5013354;28;20074;-62
2021/10/01 11:25:53;;;;;;;61.80;8.40;;;15.30;90.20;;;;;;5012014;28;20049;-61
2021/10/01 11:28:30;;;;;;;57.40;8.10;;;15.30;90.00;;;;;;5018970;28;20103;-61
2021/10/01 11:30:55;;;;;;;39.20;7.63;;;15.40;90.00;;;;;;5019235;28;20026;-61
2021/10/01 11:33:22;;;;;;;53.80;7.53;;;15.50;89.90;;;;;;5004410;28;20057;-60
2021/10/01 11:35:49;;;;;;;32.63;6.60;;;15.50;89.50;;;;;;5013065;28;20507;-61
2021/10/01 11:38:25;;;;;;;38.90;6.85;;;15.60;89.40;;;;;;5021279;28;20420;-61
2021/10/01 11:41:09;;;;;;;28.63;5.93;;;15.60;89.30;;;;;;5019939;28;20029;-62
2021/10/01 11:43:48;;;;;;;39.70;5.75;;;15.70;89.10;;;;;;5021594;28;20032;-61
2021/10/01 11:46:23;;;;;;;63.88;8.05;;;15.80;88.90;;;;;;4997311;28;20188;-62
2021/10/01 11:48:48;;;;;;;35.67;6.20;;;15.80;88.90;;;;;;5015013;28;20018;-61
2021/10/01 11:51:14;;;;;;;57.42;7.70;;;15.80;88.60;;;;;;5015668;28;21268;-62
2021/10/01 11:53:39;;;;;;;67.22;8.20;;;15.90;88.50;;;;;;5023355;28;20025;-62
2021/10/01 11:56:07;;;;;;;38.58;6.70;;;15.90;88.20;;;;;;5015763;28;20026;-62
2021/10/01 11:58:34;;;;;;;59.33;7.75;;;16.00;87.90;;;;;;4998850;28;20766;-61
2021/10/01 12:01:10;;;;;;;57.42;7.10;;;16.10;87.90;;;;;;5012013;28;20045;-61
2021/10/01 12:03:35;;;;;;;61.65;7.75;;;16.10;87.80;;;;;;5003154;28;20041;-61
2021/10/01 12:06:01;;;;;;;63.55;9.98;;;16.20;87.50;;;;;;4999704;28;20026;-62
2021/10/01 12:08:29;;;;;;;42.30;7.18;;;16.20;87.40;;;;;;5018725;28;20192;-61
2021/10/01 12:10:56;;;;;;;75.13;7.53;;;16.30;87.20;;;;;;5023198;28;20124;-61
2021/10/01 12:13:23;;;;;;;69.53;8.20;;;16.30;86.90;;;;;;5022546;28;20033;-61
2021/10/01 12:15:49;;;;;;;62.65;7.03;;;16.40;86.80;;;;;;5007037;28;20767;-61
2021/10/01 12:18:27;;;;;;;63.25;8.82;;;16.50;86.60;;;;;;5022591;28;20025;-61
2021/10/01 12:20:53;;;;;;;60.17;8.02;;;16.50;86.40;;;;;;5022576;28;20041;-61
2021/10/01 12:23:23;;;;;;;65.13;9.10;;;16.60;86.30;;;;;;5021355;28;20021;-61
2021/10/01 12:25:50;;;;;;;86.57;8.73;;;16.60;86.10;;;;;;5019786;28;20030;-62
2021/10/01 12:28:16;;;;;;;109.25;10.60;;;16.80;86.10;;;;;;5005005;28;20125;-61
2021/10/01 12:30:41;;;;;;;65.22;9.40;;;16.80;86.00;;;;;;5019744;28;20104;-61
2021/10/01 12:33:07;;;;;;;76.25;8.98;;;16.90;85.70;;;;;;5020688;28;20482;-61
2021/10/01 12:35:32;;;;;;;62.38;7.32;;;16.90;85.50;;;;;;5003627;28;20065;-61
2021/10/01 12:37:58;;;;;;;68.28;8.52;;;17.00;85.50;;;;;;5024222;28;20044;-60
2021/10/01 12:40:23;;;;;;;93.35;9.23;;;17.00;85.10;;;;;;5001645;28;20048;-62
2021/10/01 12:42:52;;;;;;;61.78;8.48;;;17.10;85.00;;;;;;5018796;28;20524;-61
2021/10/01 12:45:18;;;;;;;72.80;8.98;;;17.20;85.20;;;;;;5024079;28;20042;-61
2021/10/01 12:47:49;;;;;;;99.50;11.35;;;17.30;85.50;;;;;;5018902;28;20116;-62
2021/10/01 12:50:21;;;;;;;74.57;9.07;;;17.30;84.90;;;;;;5026346;28;20076;-61
2021/10/01 12:52:57;;;;;;;93.30;11.15;;;17.40;84.60;;;;;;4996715;28;20458;-61
2021/10/01 12:55:22;;;;;;;94.30;10.90;;;17.50;84.50;;;;;;5024646;28;20413;-61
2021/10/01 12:57:49;;;;;;;128.38;14.13;;;17.50;84.40;;;;;;5020808;28;20036;-62
2021/10/01 13:00:27;;;;;;;101.75;12.82;;;17.60;84.50;;;;;;5024069;28;20448;-61
2021/10/01 13:03:03;;;;;;;119.82;13.45;;;17.60;84.40;;;;;;5016504;28;20037;-61
2021/10/01 13:05:30;;;;;;;118.85;14.07;;;17.70;84.60;;;;;;5026318;28;20037;-62
2021/10/01 13:07:56;;;;;;;102.63;11.90;;;17.70;84.30;;;;;;5016542;28;20128;-61
2021/10/01 13:10:49;;;;;;;130.27;15.82;;;17.80;84.10;;;;;;5021368;28;20132;-61
2021/10/01 13:13:28;;;;;;;91.25;11.85;;;18.00;84.30;;;;;;5019982;28;20053;-61
2021/10/01 13:15:58;;;;;;;97.90;13.20;;;17.90;84.10;;;;;;5020135;28;20049;-62
2021/10/01 13:18:33;;;;;;;134.52;14.70;;;18.00;83.80;;;;;;5019640;28;20030;-62
2021/10/01 13:21:02;;;;;;;127.18;14.35;;;18.00;83.70;;;;;;5000535;28;20024;-61
2021/10/01 13:24:00;;;;;;;120.88;13.05;;;18.10;83.60;;;;;;5018018;28;20064;-61
2021/10/01 13:26:30;;;;;;;100.90;12.63;;;18.10;83.50;;;;;;5015306;28;20046;-62
2021/10/01 13:29:02;;;;;;;80.63;11.27;;;18.20;82.90;;;;;;5000944;28;20079;-61
2021/10/01 13:31:29;;;;;;;117.18;12.18;;;18.20;83.10;;;;;;5015875;28;20343;-61
2021/10/01 13:33:55;;;;;;;141.02;14.85;;;18.20;82.80;;;;;;5022219;28;20014;-62
2021/10/01 13:36:21;;;;;;;142.23;14.20;;;18.30;83.30;;;;;;5025020;28;20036;-62
2021/10/01 13:38:46;;;;;;;95.70;12.45;;;18.30;82.70;;;;;;5024454;28;20080;-62
2021/10/01 13:41:14;;;;;;;89.30;9.52;;;18.40;82.20;;;;;;5021154;28;20037;-62
2021/10/01 13:43:40;;;;;;;62.97;9.23;;;18.40;81.40;;;;;;5006249;28;20357;-63
2021/10/01 13:46:06;;;;;;;76.60;11.07;;;18.50;81.50;;;;;;5022804;28;20072;-61
2021/10/01 13:48:32;;;;;;;101.93;11.02;;;18.50;81.90;;;;;;5013622;28;20037;-61
2021/10/01 13:50:57;;;;;;;75.60;10.32;;;18.50;81.00;;;;;;5006888;28;20075;-61
2021/10/01 13:53:23;;;;;;;86.25;10.20;;;18.60;80.60;;;;;;5018443;28;20037;-61
2021/10/01 13:55:49;;;;;;;71.25;10.35;;;18.70;80.60;;;;;;5021810;28;20044;-61
2021/10/01 13:58:15;;;;;;;86.45;11.10;;;18.70;80.50;;;;;;5015135;28;20637;-61
2021/10/01 14:00:40;;;;;;;82.72;10.98;;;18.70;80.60;;;;;;5018399;28;20041;-62
2021/10/01 14:03:06;;;;;;;89.82;10.55;;;18.80;80.10;;;;;;5018423;28;20043;-61
2021/10/01 14:05:32;;;;;;;70.85;9.20;;;18.80;79.80;;;;;;5018248;28;20352;-61